Time;durP1;ratioP1;P1;durP2;ratioP2;P2;SDS_P1;SDS_P2;PMS_P1;PMS_P2;Temp;Humidity;BMP_temperature;BMP_pressure;BME280_temperature;BME280_humidity;BME280_pressure;Samples;Min_cycle;Max_cycle;Signal;HPM_P1;HPM_P2
2021/04/26 00:00:23;;;;;;;10.00;4.22;;;;;;;;;;5094640;28;20375;-65
2021/04/26 00:02:49;;;;;;;9.00;3.85;;;;;;;;;;5093264;28;20422;-64
2021/04/26 00:05:16;;;;;;;7.45;3.28;;;;;;;;;;5093933;28;20061;-65
2021/04/26 00:07:42;;;;;;;8.98;4.05;;;;;;;;;;5093239;28;20024;-64
2021/04/26 00:10:09;;;;;;;7.97;3.63;;;;;;;;;;5094254;28;20123;-64
2021/04/26 00:12:35;;;;;;;7.80;3.90;;;;;;;;;;5092329;28;20024;-64
2021/04/26 00:15:01;;;;;;;13.98;3.67;;;;;;;;;;5094151;28;20028;-64
2021/04/26 00:17:28;;;;;;;7.43;3.42;;;;;;;;;;5093982;28;20024;-64
2021/04/26 00:19:54;;;;;;;7.30;3.55;;;;;;;;;;5092339;28;20074;-64
2021/04/26 00:22:20;;;;;;;9.18;3.50;;;;;;;;;;5094176;28;20035;-64
2021/04/26 00:24:46;;;;;;;8.00;3.58;;;;;;;;;;5094013;28;20484;-64
2021/04/26 00:27:12;;;;;;;9.40;3.78;;;;;;;;;;5093443;28;20024;-65
2021/04/26 00:29:38;;;;;;;6.45;2.83;;;;;;;;;;5092566;28;20031;-64
2021/04/26 00:32:05;;;;;;;7.03;3.35;;;;;;;;;;5093634;28;20473;-64
2021/04/26 00:34:31;;;;;;;6.68;3.00;;;;;;;;;;5093763;28;20032;-64
2021/04/26 00:36:57;;;;;;;6.65;3.03;;;;;;;;;;5092440;28;20031;-64
2021/04/26 00:39:23;;;;;;;6.45;2.60;;;;;;;;;;5093246;28;20072;-64
2021/04/26 00:41:50;;;;;;;7.13;3.00;;;;;;;;;;5093641;28;20016;-65
2021/04/26 00:44:16;;;;;;;5.35;2.45;;;;;;;;;;5093560;28;20508;-65
2021/04/26 00:46:42;;;;;;;7.35;3.35;;;;;;;;;;5093169;28;20032;-65
2021/04/26 00:49:08;;;;;;;9.65;4.00;;;;;;;;;;5093476;28;20022;-65
2021/04/26 00:51:34;;;;;;;12.32;5.22;;;;;;;;;;5093483;28;20020;-64
2021/04/26 00:54:00;;;;;;;12.65;4.45;;;;;;;;;;5092987;28;20512;-65
2021/04/26 00:56:27;;;;;;;16.27;6.88;;;;;;;;;;5093346;28;20425;-64
2021/04/26 00:58:53;;;;;;;12.43;5.32;;;;;;;;;;5092034;28;20043;-65
2021/04/26 01:01:20;;;;;;;14.48;5.82;;;;;;;;;;5093237;28;20078;-64
2021/04/26 01:03:46;;;;;;;15.52;4.85;;;;;;;;;;5093383;28;20075;-65
2021/04/26 01:06:13;;;;;;;13.07;4.70;;;;;;;;;;5093326;28;20038;-65
2021/04/26 01:08:39;;;;;;;11.63;4.43;;;;;;;;;;5092807;28;20555;-64
2021/04/26 01:11:06;;;;;;;11.13;4.40;;;;;;;;;;5093433;28;20089;-65
2021/04/26 01:13:50;;;;;;;13.68;4.50;;;;;;;;;;5091834;28;20020;-64
2021/04/26 01:16:19;;;;;;;9.57;4.05;;;;;;;;;;5092698;28;20028;-65
2021/04/26 01:18:45;;;;;;;10.70;4.80;;;;;;;;;;5092713;28;20504;-64
2021/04/26 01:21:11;;;;;;;13.95;5.53;;;;;;;;;;5092534;28;20549;-64
2021/04/26 01:23:40;;;;;;;15.70;5.35;;;;;;;;;;5092953;28;20479;-64
2021/04/26 01:26:09;;;;;;;11.45;4.15;;;;;;;;;;5093116;28;20036;-65
2021/04/26 01:28:46;;;;;;;11.02;4.32;;;;;;;;;;5092473;28;20061;-65
2021/04/26 01:31:16;;;;;;;6.80;3.05;;;;;;;;;;5092877;28;20048;-64
2021/04/26 01:33:53;;;;;;;9.82;3.35;;;;;;;;;;5091489;28;20023;-64
2021/04/26 01:36:24;;;;;;;8.35;2.92;;;;;;;;;;5091145;28;20086;-64
2021/04/26 01:38:52;;;;;;;7.65;3.38;;;;;;;;;;5092761;28;20020;-65
2021/04/26 01:41:21;;;;;;;7.68;3.70;;;;;;;;;;5092642;28;20069;-65
2021/04/26 01:43:47;;;;;;;6.75;3.17;;;;;;;;;;5090769;28;20127;-64
2021/04/26 01:46:15;;;;;;;6.07;3.90;;;;;;;;;;5092951;28;20024;-64
2021/04/26 01:48:43;;;;;;;9.15;4.03;;;;;;;;;;5092664;28;20472;-64
2021/04/26 01:51:10;;;;;;;8.80;3.60;;;;;;;;;;5090979;28;20028;-64
2021/04/26 01:53:37;;;;;;;7.72;4.03;;;;;;;;;;5091269;28;20419;-64
2021/04/26 01:56:05;;;;;;;10.43;3.53;;;;;;;;;;5091245;28;20055;-64
2021/04/26 01:58:31;;;;;;;7.82;3.22;;;;;;;;;;5090921;28;20020;-64
2021/04/26 02:00:58;;;;;;;9.15;4.32;;;;;;;;;;5092585;28;20024;-64
2021/04/26 02:03:26;;;;;;;10.98;4.60;;;;;;;;;;5092306;28;20520;-64
2021/04/26 02:05:54;;;;;;;8.15;4.05;;;;;;;;;;5092362;28;20043;-64
2021/04/26 02:08:21;;;;;;;7.00;3.33;;;;;;;;;;5092388;28;20024;-67
2021/04/26 02:10:47;;;;;;;9.13;3.50;;;;;;;;;;5090716;28;20036;-64
2021/04/26 02:13:15;;;;;;;8.10;3.50;;;;;;;;;;5092386;28;20498;-64
2021/04/26 02:15:41;;;;;;;7.32;3.40;;;;;;;;;;5091099;28;20021;-64
2021/04/26 02:18:08;;;;;;;6.20;3.50;;;;;;;;;;5090658;28;20020;-64
2021/04/26 02:20:35;;;;;;;9.55;4.03;;;;;;;;;;5092416;28;20526;-65
2021/04/26 02:23:01;;;;;;;5.90;3.65;;;;;;;;;;5092560;28;20028;-64
2021/04/26 02:25:27;;;;;;;9.20;4.53;;;;;;;;;;5091816;28;20035;-64
2021/04/26 02:27:53;;;;;;;8.52;4.35;;;;;;;;;;5091073;28;20541;-64
2021/04/26 02:30:20;;;;;;;7.60;3.95;;;;;;;;;;5092299;28;20479;-64
2021/04/26 02:32:48;;;;;;;6.85;3.63;;;;;;;;;;5095823;28;20400;-63
2021/04/26 02:35:18;;;;;;;7.07;3.70;;;;;;;;;;5094778;28;20024;-64
2021/04/26 02:37:54;;;;;;;6.82;3.78;;;;;;;;;;5096027;28;20028;-64
2021/04/26 02:40:21;;;;;;;6.97;3.40;;;;;;;;;;5095697;28;20028;-64
2021/04/26 02:42:48;;;;;;;8.90;4.10;;;;;;;;;;5094843;28;20061;-64
2021/04/26 02:45:15;;;;;;;12.05;5.00;;;;;;;;;;5095600;28;20055;-64
2021/04/26 02:47:45;;;;;;;10.50;5.07;;;;;;;;;;5094080;28;20022;-65
2021/04/26 02:50:12;;;;;;;8.65;4.55;;;;;;;;;;5095709;28;20039;-64
2021/04/26 02:52:39;;;;;;;8.00;4.18;;;;;;;;;;5095315;28;20487;-64
2021/04/26 02:55:07;;;;;;;6.18;3.15;;;;;;;;;;5095688;28;20035;-64
2021/04/26 02:57:33;;;;;;;8.55;4.60;;;;;;;;;;5095644;28;20089;-64
2021/04/26 03:00:01;;;;;;;7.03;4.32;;;;;;;;;;5095133;28;20031;-63
2021/04/26 03:02:28;;;;;;;7.80;3.83;;;;;;;;;;5095688;28;20032;-64
2021/04/26 03:04:54;;;;;;;10.45;4.07;;;;;;;;;;5094278;28;20039;-63
2021/04/26 03:07:21;;;;;;;8.75;4.60;;;;;;;;;;5093750;28;20020;-64
2021/04/26 03:09:47;;;;;;;9.27;4.20;;;;;;;;;;5095380;28;20028;-63
2021/04/26 03:12:14;;;;;;;8.27;4.45;;;;;;;;;;5095266;28;20028;-63
2021/04/26 03:14:41;;;;;;;10.38;4.45;;;;;;;;;;5093623;28;20052;-63
2021/04/26 03:17:08;;;;;;;7.32;3.80;;;;;;;;;;5095197;28;20103;-63
2021/04/26 03:19:37;;;;;;;8.27;3.60;;;;;;;;;;5095278;28;20028;-63
2021/04/26 03:22:03;;;;;;;8.25;3.95;;;;;;;;;;5093674;28;20058;-63
2021/04/26 03:24:30;;;;;;;5.90;3.78;;;;;;;;;;5095209;28;20391;-64
2021/04/26 03:26:57;;;;;;;8.35;4.00;;;;;;;;;;5093823;28;20020;-64
2021/04/26 03:29:23;;;;;;;12.07;4.00;;;;;;;;;;5094575;28;20027;-64
2021/04/26 03:31:50;;;;;;;8.00;4.40;;;;;;;;;;5093718;28;20407;-64
2021/04/26 03:34:17;;;;;;;8.68;3.58;;;;;;;;;;5094948;28;20048;-63
2021/04/26 03:36:43;;;;;;;6.05;3.10;;;;;;;;;;5094457;28;20099;-63
2021/04/26 03:39:10;;;;;;;8.68;4.20;;;;;;;;;;5094876;28;20058;-64
2021/04/26 03:41:39;;;;;;;11.15;5.47;;;;;;;;;;5094834;28;20452;-64
2021/04/26 03:44:11;;;;;;;8.77;4.65;;;;;;;;;;5094159;28;20048;-64
2021/04/26 03:46:57;;;;;;;13.60;6.93;;;;;;;;;;5094642;28;20053;-63
2021/04/26 03:49:24;;;;;;;10.50;6.53;;;;;;;;;;5092992;28;20028;-64
2021/04/26 03:51:50;;;;;;;9.93;5.00;;;;;;;;;;5093202;28;20024;-64
2021/04/26 03:54:17;;;;;;;10.15;5.20;;;;;;;;;;5094579;28;20024;-64
2021/04/26 03:56:43;;;;;;;9.00;4.60;;;;;;;;;;5094096;28;20042;-64
2021/04/26 03:59:09;;;;;;;12.45;5.35;;;;;;;;;;5094434;28;20376;-64
2021/04/26 04:01:35;;;;;;;9.93;5.32;;;;;;;;;;5094614;28;20028;-64
2021/04/26 04:04:02;;;;;;;8.70;5.20;;;;;;;;;;5094040;28;20103;-65
2021/04/26 04:06:28;;;;;;;11.30;5.07;;;;;;;;;;5094301;28;20046;-65
2021/04/26 04:08:54;;;;;;;11.43;4.88;;;;;;;;;;5094230;28;20017;-64
2021/04/26 04:11:20;;;;;;;14.35;6.85;;;;;;;;;;5093816;28;20104;-65
2021/04/26 04:13:47;;;;;;;23.35;11.55;;;;;;;;;;5092907;28;20077;-65
2021/04/26 04:16:13;;;;;;;17.83;9.98;;;;;;;;;;5094109;28;20520;-64
2021/04/26 04:18:39;;;;;;;19.77;10.00;;;;;;;;;;5093630;28;20025;-64
2021/04/26 04:21:05;;;;;;;25.05;13.55;;;;;;;;;;5094076;28;20020;-65
2021/04/26 04:23:31;;;;;;;16.40;8.50;;;;;;;;;;5094188;28;20426;-64
2021/04/26 04:25:57;;;;;;;12.18;6.15;;;;;;;;;;5092204;28;20105;-64
2021/04/26 04:28:24;;;;;;;10.07;5.22;;;;;;;;;;5093871;28;20020;-65
2021/04/26 04:30:50;;;;;;;7.75;4.25;;;;;;;;;;5093820;28;20034;-65
2021/04/26 04:33:16;;;;;;;10.40;5.45;;;;;;;;;;5093350;28;20380;-65
2021/04/26 04:35:42;;;;;;;13.23;6.38;;;;;;;;;;5093704;28;20039;-65
2021/04/26 04:38:08;;;;;;;11.65;6.75;;;;;;;;;;5093280;28;20095;-65
2021/04/26 04:40:35;;;;;;;12.20;6.13;;;;;;;;;;5093889;28;20066;-65
2021/04/26 04:43:01;;;;;;;12.88;6.70;;;;;;;;;;5094041;28;20028;-64
2021/04/26 04:45:27;;;;;;;12.60;6.80;;;;;;;;;;5092911;28;20127;-65
2021/04/26 04:47:53;;;;;;;11.18;6.10;;;;;;;;;;5093564;28;20418;-65
2021/04/26 04:50:19;;;;;;;12.40;6.50;;;;;;;;;;5092530;28;20070;-65
2021/04/26 04:52:45;;;;;;;11.73;6.35;;;;;;;;;;5093352;28;20024;-64
2021/04/26 04:55:12;;;;;;;15.35;6.78;;;;;;;;;;5092783;28;20058;-65
2021/04/26 04:57:38;;;;;;;17.17;6.80;;;;;;;;;;5092073;28;20391;-64
2021/04/26 05:00:05;;;;;;;10.32;6.55;;;;;;;;;;5091331;28;20038;-63
2021/04/26 05:02:32;;;;;;;10.75;5.97;;;;;;;;;;5093231;28;20107;-63
2021/04/26 05:04:58;;;;;;;16.90;6.53;;;;;;;;;;5090704;28;20043;-64
2021/04/26 05:07:24;;;;;;;11.40;6.57;;;;;;;;;;5089882;28;20043;-63
2021/04/26 05:09:50;;;;;;;12.90;6.45;;;;;;;;;;5089697;28;20031;-64
2021/04/26 05:12:17;;;;;;;13.13;5.32;;;;;;;;;;5090840;28;20020;-64
2021/04/26 05:14:46;;;;;;;10.63;6.72;;;;;;;;;;5089958;28;20028;-64
2021/04/26 05:17:12;;;;;;;13.30;6.45;;;;;;;;;;5091543;28;20042;-64
2021/04/26 05:19:38;;;;;;;11.45;6.10;;;;;;;;;;5092582;28;20020;-64
2021/04/26 05:22:04;;;;;;;13.80;6.57;;;;;;;;;;5092497;28;20031;-63
2021/04/26 05:24:31;;;;;;;11.10;6.32;;;;;;;;;;5092495;28;20441;-63
2021/04/26 05:26:58;;;;;;;13.30;7.68;;;;;;;;;;5089840;28;20028;-63
2021/04/26 05:29:24;;;;;;;16.30;8.93;;;;;;;;;;5081999;28;20028;-63
2021/04/26 05:31:50;;;;;;;14.55;8.07;;;;;;;;;;5072175;28;20067;-66
2021/04/26 05:34:16;;;;;;;19.20;9.38;;;;;;;;;;5069915;28;20043;-67
2021/04/26 05:36:43;;;;;;;16.42;10.40;;;;;;;;;;5065510;28;20059;-66
2021/04/26 05:39:09;;;;;;;13.35;8.13;;;;;;;;;;5077053;28;20517;-66
2021/04/26 05:41:36;;;;;;;17.83;9.50;;;;;;;;;;5069676;28;20032;-66
2021/04/26 05:44:02;;;;;;;15.45;7.78;;;;;;;;;;5072482;28;20166;-67
2021/04/26 05:46:28;;;;;;;21.02;9.65;;;;;;;;;;5084895;28;20032;-67
2021/04/26 05:48:54;;;;;;;17.33;10.43;;;;;;;;;;5077266;28;20085;-66
2021/04/26 05:51:21;;;;;;;21.08;12.05;;;;;;;;;;5065171;28;20039;-67
2021/04/26 05:53:47;;;;;;;18.75;10.35;;;;;;;;;;5062941;28;20135;-66
2021/04/26 05:56:13;;;;;;;17.15;9.07;;;;;;;;;;5067248;28;20032;-65
2021/04/26 05:58:40;;;;;;;13.43;7.80;;;;;;;;;;5068068;28;20395;-65
2021/04/26 06:01:06;;;;;;;13.02;7.18;;;;;;;;;;5070210;28;20052;-65
2021/04/26 06:03:32;;;;;;;12.15;5.80;;;;;;;;;;5069994;28;20028;-66
2021/04/26 06:05:58;;;;;;;12.02;6.38;;;;;;;;;;5067669;28;20771;-66
2021/04/26 06:08:26;;;;;;;12.73;7.05;;;;;;;;;;5077053;28;20155;-66
2021/04/26 06:10:52;;;;;;;11.80;5.25;;;;;;;;;;5073236;28;20158;-65
2021/04/26 06:13:18;;;;;;;10.85;5.70;;;;;;;;;;5075487;28;20467;-66
2021/04/26 06:15:45;;;;;;;10.05;5.68;;;;;;;;;;5080932;28;20068;-65
2021/04/26 06:18:15;;;;;;;12.10;5.75;;;;;;;;;;5070023;28;20020;-65
2021/04/26 06:20:43;;;;;;;8.93;5.40;;;;;;;;;;5074114;28;20036;-68
2021/04/26 06:23:10;;;;;;;23.45;9.65;;;;;;;;;;5080528;28;20076;-69
2021/04/26 06:25:37;;;;;;;15.45;7.22;;;;;;;;;;5068906;28;20327;-68
2021/04/26 06:28:06;;;;;;;12.48;6.82;;;;;;;;;;5071772;28;20028;-69
2021/04/26 06:30:33;;;;;;;9.70;5.65;;;;;;;;;;5074925;28;20048;-68
2021/04/26 06:32:59;;;;;;;13.60;6.97;;;;;;;;;;5070383;28;20024;-66
2021/04/26 06:35:25;;;;;;;10.13;5.20;;;;;;;;;;5076083;28;20035;-68
2021/04/26 06:37:52;;;;;;;12.35;6.53;;;;;;;;;;5075678;28;20062;-67
2021/04/26 06:42:50;;;;;;;10.90;5.45;;;;;;;;;;5091094;27;20497;-66
2021/04/26 06:46:35;;;;;;;11.27;5.20;;;;;;;;;;5043427;28;20415;-70
2021/04/26 06:49:35;;;;;;;18.05;9.45;;;;;;;;;;5089942;27;20920;-69
2021/04/26 06:52:02;;;;;;;13.30;6.28;;;;;;;;;;5092709;28;20028;-70
2021/04/26 06:54:28;;;;;;;13.40;6.70;;;;;;;;;;5085834;28;20105;-69
2021/04/26 06:56:56;;;;;;;9.02;5.82;;;;;;;;;;5087674;28;20023;-69
2021/04/26 06:59:22;;;;;;;11.73;5.18;;;;;;;;;;5083038;28;20027;-69
2021/04/26 07:01:56;;;;;;;25.88;15.48;;;;;;;;;;5083876;27;20494;-69
2021/04/26 07:04:22;;;;;;;13.20;7.00;;;;;;;;;;5091663;28;20042;-71
2021/04/26 07:08:17;;;;;;;10.93;6.45;;;;;;;;;;5086228;27;20473;-70
2021/04/26 07:10:43;;;;;;;10.48;5.38;;;;;;;;;;5082402;28;20036;-70
2021/04/26 07:13:09;;;;;;;14.98;6.20;;;;;;;;;;5088433;28;20035;-70
2021/04/26 07:15:36;;;;;;;8.70;4.88;;;;;;;;;;5087203;28;20715;-71
2021/04/26 07:18:02;;;;;;;10.57;6.07;;;;;;;;;;5091485;28;20084;-70
2021/04/26 07:21:33;;;;;;;9.63;6.75;;;;;;;;;;5081867;27;20733;-70
2021/04/26 07:24:00;;;;;;;10.68;5.47;;;;;;;;;;5063178;28;20086;-69
2021/04/26 07:26:26;;;;;;;10.07;5.60;;;;;;;;;;5067023;28;20024;-69
2021/04/26 07:28:52;;;;;;;8.65;4.75;;;;;;;;;;5063661;28;20021;-70
2021/04/26 07:31:19;;;;;;;8.55;4.85;;;;;;;;;;5077780;28;20028;-72
2021/04/26 07:34:25;;;;;;;12.00;7.15;;;;;;;;;;5067320;28;20395;-72
2021/04/26 07:36:51;;;;;;;11.82;6.35;;;;;;;;;;5066130;28;20024;-71
2021/04/26 07:39:18;;;;;;;11.23;5.68;;;;;;;;;;5063195;28;20381;-69
2021/04/26 07:41:45;;;;;;;10.13;5.78;;;;;;;;;;5067535;28;20020;-71
2021/04/26 07:44:11;;;;;;;12.60;6.78;;;;;;;;;;5066830;28;20112;-70
2021/04/26 07:46:38;;;;;;;16.67;11.25;;;;;;;;;;5068401;28;20085;-68
2021/04/26 07:52:33;;;;;;;16.83;10.18;;;;;;;;;;5084958;28;20391;-70
2021/04/26 07:54:59;;;;;;;13.43;7.32;;;;;;;;;;5069358;28;20071;-70
2021/04/26 07:57:26;;;;;;;12.52;5.85;;;;;;;;;;5069206;28;20104;-68
2021/04/26 07:59:52;;;;;;;11.43;6.03;;;;;;;;;;5069786;28;20100;-67
2021/04/26 08:02:19;;;;;;;8.40;5.45;;;;;;;;;;5069030;28;20016;-68
2021/04/26 08:04:45;;;;;;;11.38;5.70;;;;;;;;;;5034926;28;20021;-68
2021/04/26 08:07:11;;;;;;;9.45;5.25;;;;;;;;;;5024383;28;20020;-68
2021/04/26 08:12:46;;;;;;;10.45;5.90;;;;;;;;;;5037997;28;20427;-71
2021/04/26 08:15:12;;;;;;;11.23;6.50;;;;;;;;;;5045507;28;20021;-69
2021/04/26 08:17:39;;;;;;;12.48;5.85;;;;;;;;;;5048298;28;20032;-69
2021/04/26 08:20:06;;;;;;;13.38;6.30;;;;;;;;;;5029834;28;20159;-70
2021/04/26 08:24:22;;;;;;;7.95;4.82;;;;;;;;;;5091481;27;20435;-69
2021/04/26 08:26:48;;;;;;;12.80;5.53;;;;;;;;;;5086459;28;20080;-67
2021/04/26 08:29:14;;;;;;;9.77;5.57;;;;;;;;;;5090603;28;20023;-67
2021/04/26 08:31:40;;;;;;;7.95;4.30;;;;;;;;;;5086639;28;20019;-69
2021/04/26 08:34:07;;;;;;;8.05;4.47;;;;;;;;;;5094591;28;20093;-71
2021/04/26 08:37:26;;;;;;;9.25;5.43;;;;;;;;;;5051601;28;20415;-67
2021/04/26 08:39:52;;;;;;;8.90;5.22;;;;;;;;;;5042017;28;20044;-66
2021/04/26 08:42:19;;;;;;;11.38;5.63;;;;;;;;;;5049110;28;20023;-67
2021/04/26 08:44:46;;;;;;;9.43;5.07;;;;;;;;;;5040478;28;20037;-68
2021/04/26 08:47:12;;;;;;;9.88;4.97;;;;;;;;;;5041853;28;20021;-67
2021/04/26 08:49:39;;;;;;;9.02;4.82;;;;;;;;;;5041546;28;20021;-69
2021/04/26 08:52:07;;;;;;;9.77;4.57;;;;;;;;;;5044996;28;20048;-69
2021/04/26 08:54:34;;;;;;;7.50;4.20;;;;;;;;;;5041430;28;20025;-70
2021/04/26 08:57:03;;;;;;;8.65;4.30;;;;;;;;;;5047420;28;20432;-69
2021/04/26 08:59:29;;;;;;;8.00;4.15;;;;;;;;;;5058447;28;20553;-71
2021/04/26 09:03:07;;;;;;;7.38;4.50;;;;;;;;;;5060227;28;21165;-69
2021/04/26 09:05:35;;;;;;;7.78;4.47;;;;;;;;;;5058137;28;20028;-67
2021/04/26 09:08:03;;;;;;;8.25;4.18;;;;;;;;;;5059820;28;20116;-69
2021/04/26 09:10:40;;;;;;;7.45;3.55;;;;;;;;;;5057040;28;20032;-68
2021/04/26 09:15:54;;;;;;;6.68;3.53;;;;;;;;;;5080040;27;20382;-68
2021/04/26 09:18:21;;;;;;;7.72;3.53;;;;;;;;;;5061766;28;20032;-68
2021/04/26 09:20:48;;;;;;;5.90;3.05;;;;;;;;;;5075414;28;20024;-67
2021/04/26 09:23:15;;;;;;;15.85;3.65;;;;;;;;;;5051120;28;20017;-67
2021/04/26 09:25:42;;;;;;;7.45;3.58;;;;;;;;;;5061633;28;20021;-67
2021/04/26 09:28:24;;;;;;;8.25;3.60;;;;;;;;;;5060260;28;20166;-69
2021/04/26 09:30:57;;;;;;;7.57;3.15;;;;;;;;;;5046388;28;20025;-68
2021/04/26 09:33:49;;;;;;;3.90;2.50;;;;;;;;;;5061837;28;20032;-69
2021/04/26 09:38:46;;;;;;;5.97;3.20;;;;;;;;;;5060945;28;20047;-68
2021/04/26 09:41:14;;;;;;;6.97;2.67;;;;;;;;;;5066184;28;20070;-67
2021/04/26 09:43:45;;;;;;;6.57;3.10;;;;;;;;;;5045551;28;20156;-67
2021/04/26 09:46:51;;;;;;;7.55;2.92;;;;;;;;;;5039984;28;20438;-69
2021/04/26 09:49:20;;;;;;;6.72;2.58;;;;;;;;;;5045664;28;20020;-66
2021/04/26 09:51:48;;;;;;;6.35;2.67;;;;;;;;;;5044345;28;20029;-67
2021/04/26 09:54:15;;;;;;;6.25;2.63;;;;;;;;;;5049125;28;20075;-68
2021/04/26 09:57:18;;;;;;;5.38;2.63;;;;;;;;;;5086566;27;20433;-66
2021/04/26 10:01:35;;;;;;;6.57;2.72;;;;;;;;;;5072965;27;20425;-67
2021/04/26 10:04:03;;;;;;;4.70;2.35;;;;;;;;;;5068581;28;20177;-66
2021/04/26 10:07:53;;;;;;;4.85;2.30;;;;;;;;;;5032339;28;20115;-68
2021/04/26 10:10:19;;;;;;;6.20;1.90;;;;;;;;;;5026661;28;20029;-68
2021/04/26 10:12:45;;;;;;;3.75;2.13;;;;;;;;;;5021676;28;20127;-68
2021/04/26 10:15:12;;;;;;;5.45;2.28;;;;;;;;;;5026384;28;20231;-67
2021/04/26 10:17:41;;;;;;;5.35;2.42;;;;;;;;;;5025473;28;20033;-71
2021/04/26 10:20:07;;;;;;;6.60;2.65;;;;;;;;;;5032831;28;20474;-70
2021/04/26 10:22:38;;;;;;;6.10;2.22;;;;;;;;;;5031088;28;20037;-70
2021/04/26 10:25:06;;;;;;;6.45;2.88;;;;;;;;;;5022204;28;20496;-68
2021/04/26 10:27:39;;;;;;;5.45;2.70;;;;;;;;;;5028536;28;20370;-71
2021/04/26 10:30:05;;;;;;;8.70;2.58;;;;;;;;;;5036909;28;20036;-68
2021/04/26 10:32:52;;;;;;;6.20;2.42;;;;;;;;;;5031843;28;20037;-70
2021/04/26 10:35:19;;;;;;;6.82;2.58;;;;;;;;;;5020965;28;20075;-72
2021/04/26 10:37:45;;;;;;;7.15;2.80;;;;;;;;;;5025567;28;20013;-71
2021/04/26 10:40:14;;;;;;;7.93;2.30;;;;;;;;;;5019665;28;20068;-68
2021/04/26 10:42:41;;;;;;;11.00;4.32;;;;;;;;;;5022411;28;20045;-66
2021/04/26 10:45:13;;;;;;;7.45;3.40;;;;;;;;;;5021579;28;20029;-68
2021/04/26 10:47:40;;;;;;;6.82;2.40;;;;;;;;;;5019933;28;20427;-67
2021/04/26 10:50:06;;;;;;;4.63;2.20;;;;;;;;;;5026966;28;20685;-68
2021/04/26 10:53:02;;;;;;;6.35;2.60;;;;;;;;;;5043668;28;20812;-68
2021/04/26 10:55:46;;;;;;;6.00;2.95;;;;;;;;;;5062728;28;20496;-68
2021/04/26 10:58:23;;;;;;;7.07;2.92;;;;;;;;;;5059457;28;20025;-66
2021/04/26 11:00:49;;;;;;;5.82;2.53;;;;;;;;;;5050314;28;20448;-65
2021/04/26 11:03:18;;;;;;;3.90;2.20;;;;;;;;;;5064063;28;20029;-66
2021/04/26 11:05:46;;;;;;;4.38;2.30;;;;;;;;;;5065457;28;20025;-66
2021/04/26 11:08:32;;;;;;;5.20;1.65;;;;;;;;;;5066838;28;20024;-66
2021/04/26 11:11:17;;;;;;;6.00;2.50;;;;;;;;;;5066269;28;20051;-66
2021/04/26 11:13:47;;;;;;;4.47;1.80;;;;;;;;;;5061950;28;20020;-66
2021/04/26 11:16:15;;;;;;;3.50;1.60;;;;;;;;;;5085444;28;20029;-67
2021/04/26 11:18:45;;;;;;;6.15;1.92;;;;;;;;;;5088570;28;20024;-67
2021/04/26 11:21:12;;;;;;;4.90;2.53;;;;;;;;;;5086713;28;20052;-67
2021/04/26 11:23:42;;;;;;;3.90;1.70;;;;;;;;;;5086847;28;20020;-67
2021/04/26 11:26:13;;;;;;;5.10;2.10;;;;;;;;;;5087248;28;20107;-67
2021/04/26 11:28:58;;;;;;;5.93;2.47;;;;;;;;;;5069438;28;20039;-66
2021/04/26 11:31:53;;;;;;;3.63;1.95;;;;;;;;;;5087383;28;20024;-66
2021/04/26 11:34:20;;;;;;;3.88;1.92;;;;;;;;;;5069950;28;20110;-67
2021/04/26 11:37:02;;;;;;;6.32;2.20;;;;;;;;;;5070775;28;20093;-66
2021/04/26 11:39:30;;;;;;;4.20;2.25;;;;;;;;;;5072087;28;20021;-67
2021/04/26 11:41:56;;;;;;;3.92;1.73;;;;;;;;;;5067849;28;20715;-67
2021/04/26 11:44:26;;;;;;;4.07;1.80;;;;;;;;;;5068149;28;20024;-66
2021/04/26 11:46:53;;;;;;;4.13;1.92;;;;;;;;;;5067949;28;20376;-66
2021/04/26 11:49:21;;;;;;;4.97;1.98;;;;;;;;;;5068382;28;20017;-66
2021/04/26 11:51:48;;;;;;;3.13;1.70;;;;;;;;;;5082821;28;20021;-66
2021/04/26 11:54:16;;;;;;;3.10;1.75;;;;;;;;;;5066441;28;20060;-67
2021/04/26 11:56:58;;;;;;;6.05;1.80;;;;;;;;;;5082135;28;20034;-67
2021/04/26 11:59:24;;;;;;;4.75;1.60;;;;;;;;;;5066942;28;20032;-66
2021/04/26 12:01:54;;;;;;;2.78;1.27;;;;;;;;;;5066382;28;20013;-67
2021/04/26 12:04:39;;;;;;;4.88;2.28;;;;;;;;;;5066525;28;20366;-67
2021/04/26 12:07:09;;;;;;;2.75;1.60;;;;;;;;;;5069527;28;20493;-68
2021/04/26 12:09:35;;;;;;;3.00;1.88;;;;;;;;;;5054288;28;20158;-66
2021/04/26 12:12:03;;;;;;;4.53;1.77;;;;;;;;;;5055018;28;20021;-66
2021/04/26 12:14:29;;;;;;;4.63;1.60;;;;;;;;;;5070469;28;20064;-67
2021/04/26 12:17:14;;;;;;;6.28;1.42;;;;;;;;;;5070160;28;20029;-67
2021/04/26 12:19:41;;;;;;;2.58;1.40;;;;;;;;;;5070596;28;20032;-67
2021/04/26 12:22:07;;;;;;;2.88;1.40;;;;;;;;;;5070592;28;20020;-66
2021/04/26 12:24:34;;;;;;;4.03;1.70;;;;;;;;;;5069870;28;20032;-67
2021/04/26 12:27:00;;;;;;;6.75;2.22;;;;;;;;;;5070290;28;20025;-67
2021/04/26 12:29:29;;;;;;;4.75;1.77;;;;;;;;;;5037110;28;20105;-66
2021/04/26 12:32:12;;;;;;;7.78;2.05;;;;;;;;;;5064089;28;20578;-66
2021/04/26 12:34:38;;;;;;;;;;;;;;;;;;5066197;28;20036;-66
2021/04/26 12:37:04;;;;;;;2.35;1.40;;;;;;;;;;5067405;28;19904;-66
2021/04/26 12:39:30;;;;;;;3.67;1.70;;;;;;;;;;5063582;28;20482;-65
2021/04/26 12:41:57;;;;;;;4.65;2.08;;;;;;;;;;5063220;28;20075;-66
2021/04/26 12:44:25;;;;;;;2.95;1.48;;;;;;;;;;5066108;28;20032;-66
2021/04/26 12:46:52;;;;;;;2.85;1.45;;;;;;;;;;5056767;28;20032;-67
2021/04/26 12:49:19;;;;;;;6.07;1.80;;;;;;;;;;5066014;28;20017;-67
2021/04/26 12:51:45;;;;;;;3.22;1.70;;;;;;;;;;5065788;28;20115;-66
2021/04/26 12:54:12;;;;;;;3.50;1.40;;;;;;;;;;5064404;28;20145;-65
2021/04/26 12:56:38;;;;;;;2.67;1.70;;;;;;;;;;5065367;28;20082;-66
2021/04/26 12:59:05;;;;;;;3.28;1.67;;;;;;;;;;5053517;28;20441;-65
2021/04/26 13:01:31;;;;;;;5.53;1.92;;;;;;;;;;5066630;28;20029;-66
2021/04/26 13:03:58;;;;;;;3.03;1.30;;;;;;;;;;5074145;28;20024;-67
2021/04/26 13:06:32;;;;;;;2.03;1.08;;;;;;;;;;5073883;28;20133;-67
2021/04/26 13:09:03;;;;;;;8.50;1.83;;;;;;;;;;5073985;28;20017;-66
2021/04/26 13:11:37;;;;;;;4.95;1.65;;;;;;;;;;5074133;28;20020;-67
2021/04/26 13:14:05;;;;;;;4.47;1.60;;;;;;;;;;5072656;28;20432;-66
2021/04/26 13:16:34;;;;;;;4.75;2.47;;;;;;;;;;5072500;28;20441;-67
2021/04/26 13:19:07;;;;;;;3.85;1.80;;;;;;;;;;5073063;28;20435;-68
2021/04/26 13:21:35;;;;;;;4.93;2.38;;;;;;;;;;5073935;28;20035;-67
2021/04/26 13:24:11;;;;;;;4.40;2.13;;;;;;;;;;5074073;28;20029;-67
2021/04/26 13:26:40;;;;;;;7.65;2.65;;;;;;;;;;5073589;28;20086;-67
2021/04/26 13:29:11;;;;;;;3.13;1.50;;;;;;;;;;5057195;28;20705;-67
2021/04/26 13:31:38;;;;;;;3.53;1.83;;;;;;;;;;5031126;28;20093;-67
2021/04/26 13:34:04;;;;;;;3.58;1.50;;;;;;;;;;5033016;28;20115;-67
2021/04/26 13:36:30;;;;;;;2.15;1.25;;;;;;;;;;5063158;28;20103;-66
2021/04/26 13:38:56;;;;;;;2.53;1.30;;;;;;;;;;5047559;28;20031;-66
2021/04/26 13:41:23;;;;;;;2.40;1.25;;;;;;;;;;5046144;28;20024;-65
2021/04/26 13:43:49;;;;;;;4.72;1.58;;;;;;;;;;5065877;28;20024;-66
2021/04/26 13:46:16;;;;;;;5.40;1.50;;;;;;;;;;5051048;28;20107;-67
2021/04/26 13:48:43;;;;;;;4.05;1.58;;;;;;;;;;5026520;28;20032;-65
2021/04/26 13:51:09;;;;;;;3.83;1.40;;;;;;;;;;5029306;28;20024;-66
2021/04/26 13:53:35;;;;;;;2.28;1.30;;;;;;;;;;5048696;28;20035;-65
2021/04/26 13:56:01;;;;;;;3.10;1.80;;;;;;;;;;5034749;28;20450;-67
2021/04/26 13:58:28;;;;;;;2.67;1.20;;;;;;;;;;5046480;28;20397;-66
2021/04/26 14:00:54;;;;;;;4.13;1.58;;;;;;;;;;5047343;28;20559;-66
2021/04/26 14:03:20;;;;;;;3.72;1.80;;;;;;;;;;5060618;28;20035;-66
2021/04/26 14:05:46;;;;;;;3.60;1.50;;;;;;;;;;5071860;28;20021;-66
2021/04/26 14:08:12;;;;;;;4.43;1.83;;;;;;;;;;5053748;28;20392;-67
2021/04/26 14:10:39;;;;;;;3.85;1.60;;;;;;;;;;5072353;28;20024;-67
2021/04/26 14:13:05;;;;;;;2.83;1.50;;;;;;;;;;5072878;28;20024;-67
2021/04/26 14:15:31;;;;;;;3.33;1.80;;;;;;;;;;5072247;28;20037;-67
2021/04/26 14:17:58;;;;;;;5.65;2.10;;;;;;;;;;5072562;28;20020;-67
2021/04/26 14:20:24;;;;;;;4.50;1.63;;;;;;;;;;5054834;28;20020;-67
2021/04/26 14:22:50;;;;;;;3.85;2.05;;;;;;;;;;5072643;28;20052;-67
2021/04/26 14:25:16;;;;;;;4.60;2.03;;;;;;;;;;5073126;28;20017;-67
2021/04/26 14:27:42;;;;;;;6.25;1.90;;;;;;;;;;5072771;28;20036;-67
2021/04/26 14:30:09;;;;;;;5.30;1.83;;;;;;;;;;5054164;28;20028;-67
2021/04/26 14:32:36;;;;;;;7.57;2.03;;;;;;;;;;5054793;28;20514;-67
2021/04/26 14:35:02;;;;;;;5.35;1.92;;;;;;;;;;5072363;28;20511;-67
2021/04/26 14:37:29;;;;;;;3.60;2.03;;;;;;;;;;5072162;28;20016;-67
2021/04/26 14:39:55;;;;;;;5.20;1.90;;;;;;;;;;5054524;28;20051;-67
2021/04/26 14:42:22;;;;;;;3.08;1.63;;;;;;;;;;5054819;28;20027;-67
2021/04/26 14:44:48;;;;;;;4.00;1.90;;;;;;;;;;5054215;28;20032;-67
2021/04/26 14:47:14;;;;;;;8.95;2.28;;;;;;;;;;5054430;28;20025;-67
2021/04/26 14:49:40;;;;;;;2.60;1.45;;;;;;;;;;5072470;28;20025;-67
2021/04/26 14:52:06;;;;;;;6.97;2.05;;;;;;;;;;5071949;28;20021;-67
2021/04/26 14:54:32;;;;;;;3.00;1.45;;;;;;;;;;5054093;28;20052;-67
2021/04/26 14:56:59;;;;;;;3.17;1.60;;;;;;;;;;5054342;28;20024;-67
2021/04/26 14:59:25;;;;;;;5.30;2.28;;;;;;;;;;5053975;28;20029;-67
2021/04/26 15:01:51;;;;;;;4.20;1.67;;;;;;;;;;5072890;28;20025;-67
2021/04/26 15:04:17;;;;;;;5.90;2.13;;;;;;;;;;5054105;28;20380;-67
2021/04/26 15:06:43;;;;;;;5.15;1.83;;;;;;;;;;5072329;28;20024;-67
2021/04/26 15:09:10;;;;;;;8.05;1.90;;;;;;;;;;5072261;28;20021;-67